sensor_id;sensor_type;location;lat;lon;timestamp;P1;durP1;ratioP1;P2;durP2;ratioP2
77248;SDS011;66280;45.124;20.718;2024-02-23T00:02:45;11.20;;;7.37;;
77248;SDS011;66280;45.124;20.718;2024-02-23T00:12:46;14.70;;;7.60;;
77248;SDS011;66280;45.124;20.718;2024-02-23T00:22:51;12.70;;;6.20;;
77248;SDS011;66280;45.124;20.718;2024-02-23T00:32:52;9.57;;;5.93;;
77248;SDS011;66280;45.124;20.718;2024-02-23T00:42:54;11.15;;;5.75;;
77248;SDS011;66280;45.124;20.718;2024-02-23T00:52:55;9.10;;;4.63;;
77248;SDS011;66280;45.124;20.718;2024-02-23T01:02:57;10.87;;;6.20;;
77248;SDS011;66280;45.124;20.718;2024-02-23T01:13:00;8.57;;;5.43;;
77248;SDS011;66280;45.124;20.718;2024-02-23T01:23:02;9.70;;;5.40;;
77248;SDS011;66280;45.124;20.718;2024-02-23T01:33:03;9.98;;;6.30;;
77248;SDS011;66280;45.124;20.718;2024-02-23T01:43:05;9.10;;;4.63;;
77248;SDS011;66280;45.124;20.718;2024-02-23T01:53:06;6.37;;;3.73;;
77248;SDS011;66280;45.124;20.718;2024-02-23T02:03:08;8.00;;;4.10;;
77248;SDS011;66280;45.124;20.718;2024-02-23T02:13:09;9.93;;;4.60;;
77248;SDS011;66280;45.124;20.718;2024-02-23T02:23:11;6.10;;;3.88;;
77248;SDS011;66280;45.124;20.718;2024-02-23T02:33:12;8.20;;;5.03;;
77248;SDS011;66280;45.124;20.718;2024-02-23T02:43:14;9.77;;;5.07;;
77248;SDS011;66280;45.124;20.718;2024-02-23T02:53:15;7.00;;;4.13;;
77248;SDS011;66280;45.124;20.718;2024-02-23T03:03:17;8.57;;;5.17;;
77248;SDS011;66280;45.124;20.718;2024-02-23T03:13:18;16.42;;;4.68;;
77248;SDS011;66280;45.124;20.718;2024-02-23T03:23:19;6.20;;;3.63;;
77248;SDS011;66280;45.124;20.718;2024-02-23T03:33:21;5.10;;;2.90;;
77248;SDS011;66280;45.124;20.718;2024-02-23T03:43:22;6.67;;;3.90;;
77248;SDS011;66280;45.124;20.718;2024-02-23T03:53:24;5.70;;;2.97;;
77248;SDS011;66280;45.124;20.718;2024-02-23T04:03:25;5.38;;;2.95;;
77248;SDS011;66280;45.124;20.718;2024-02-23T04:13:29;6.67;;;4.37;;
77248;SDS011;66280;45.124;20.718;2024-02-23T04:23:30;5.77;;;3.60;;
77248;SDS011;66280;45.124;20.718;2024-02-23T04:33:32;3.97;;;2.53;;
77248;SDS011;66280;45.124;20.718;2024-02-23T04:43:34;7.77;;;2.53;;
77248;SDS011;66280;45.124;20.718;2024-02-23T04:53:38;4.53;;;2.95;;
77248;SDS011;66280;45.124;20.718;2024-02-23T05:03:39;4.73;;;3.10;;
77248;SDS011;66280;45.124;20.718;2024-02-23T05:13:41;5.77;;;4.00;;
77248;SDS011;66280;45.124;20.718;2024-02-23T05:23:42;4.77;;;3.50;;
77248;SDS011;66280;45.124;20.718;2024-02-23T05:33:44;5.80;;;2.80;;
77248;SDS011;66280;45.124;20.718;2024-02-23T05:43:45;5.40;;;2.92;;
77248;SDS011;66280;45.124;20.718;2024-02-23T05:53:47;10.50;;;4.90;;
77248;SDS011;66280;45.124;20.718;2024-02-23T06:03:48;10.50;;;5.13;;
77248;SDS011;66280;45.124;20.718;2024-02-23T06:13:49;6.73;;;3.43;;
77248;SDS011;66280;45.124;20.718;2024-02-23T06:23:51;4.30;;;3.00;;
77248;SDS011;66280;45.124;20.718;2024-02-23T06:33:52;12.43;;;3.80;;
77248;SDS011;66280;45.124;20.718;2024-02-23T06:43:54;15.87;;;6.10;;
77248;SDS011;66280;45.124;20.718;2024-02-23T06:53:55;11.43;;;5.70;;
77248;SDS011;66280;45.124;20.718;2024-02-23T07:03:57;10.63;;;5.40;;
77248;SDS011;66280;45.124;20.718;2024-02-23T07:13:59;9.10;;;4.93;;
77248;SDS011;66280;45.124;20.718;2024-02-23T07:24:01;8.38;;;5.28;;
77248;SDS011;66280;45.124;20.718;2024-02-23T07:34:05;11.47;;;4.47;;
77248;SDS011;66280;45.124;20.718;2024-02-23T07:44:07;23.03;;;7.60;;
77248;SDS011;66280;45.124;20.718;2024-02-23T07:54:08;12.17;;;5.63;;
77248;SDS011;66280;45.124;20.718;2024-02-23T08:04:10;11.10;;;6.67;;
77248;SDS011;66280;45.124;20.718;2024-02-23T08:14:11;10.18;;;5.63;;
77248;SDS011;66280;45.124;20.718;2024-02-23T08:24:13;9.97;;;6.10;;
77248;SDS011;66280;45.124;20.718;2024-02-23T08:34:14;7.07;;;4.73;;
77248;SDS011;66280;45.124;20.718;2024-02-23T08:44:16;11.47;;;6.27;;
77248;SDS011;66280;45.124;20.718;2024-02-23T08:54:17;12.57;;;5.90;;
77248;SDS011;66280;45.124;20.718;2024-02-23T09:04:19;5.80;;;4.22;;
77248;SDS011;66280;45.124;20.718;2024-02-23T09:14:20;8.40;;;5.87;;
77248;SDS011;66280;45.124;20.718;2024-02-23T09:24:22;13.67;;;6.60;;
77248;SDS011;66280;45.124;20.718;2024-02-23T09:34:25;17.50;;;5.53;;
77248;SDS011;66280;45.124;20.718;2024-02-23T09:44:28;9.63;;;6.00;;
77248;SDS011;66280;45.124;20.718;2024-02-23T09:54:35;9.77;;;5.97;;
77248;SDS011;66280;45.124;20.718;2024-02-23T10:04:38;10.17;;;6.23;;
77248;SDS011;66280;45.124;20.718;2024-02-23T10:14:41;11.40;;;6.73;;
77248;SDS011;66280;45.124;20.718;2024-02-23T10:24:43;9.83;;;5.83;;
77248;SDS011;66280;45.124;20.718;2024-02-23T10:34:44;6.17;;;4.47;;
77248;SDS011;66280;45.124;20.718;2024-02-23T10:44:48;9.30;;;5.70;;
77248;SDS011;66280;45.124;20.718;2024-02-23T10:54:50;7.60;;;5.63;;
77248;SDS011;66280;45.124;20.718;2024-02-23T11:04:52;7.17;;;5.53;;
77248;SDS011;66280;45.124;20.718;2024-02-23T11:14:58;10.97;;;5.67;;
77248;SDS011;66280;45.124;20.718;2024-02-23T11:25:10;24.57;;;14.07;;
77248;SDS011;66280;45.124;20.718;2024-02-23T11:35:16;14.88;;;8.93;;
77248;SDS011;66280;45.124;20.718;2024-02-23T11:45:23;15.87;;;9.43;;
77248;SDS011;66280;45.124;20.718;2024-02-23T11:55:26;15.43;;;9.20;;
77248;SDS011;66280;45.124;20.718;2024-02-23T12:05:27;15.47;;;9.53;;
77248;SDS011;66280;45.124;20.718;2024-02-23T12:15:29;14.30;;;8.27;;
77248;SDS011;66280;45.124;20.718;2024-02-23T12:25:31;13.60;;;7.85;;
77248;SDS011;66280;45.124;20.718;2024-02-23T12:35:34;10.00;;;5.87;;
77248;SDS011;66280;45.124;20.718;2024-02-23T12:45:37;25.20;;;14.13;;
77248;SDS011;66280;45.124;20.718;2024-02-23T12:55:38;9.07;;;5.93;;
77248;SDS011;66280;45.124;20.718;2024-02-23T13:05:40;6.97;;;4.97;;
77248;SDS011;66280;45.124;20.718;2024-02-23T13:15:42;12.30;;;6.75;;
77248;SDS011;66280;45.124;20.718;2024-02-23T13:25:44;6.57;;;4.13;;
77248;SDS011;66280;45.124;20.718;2024-02-23T13:35:46;8.23;;;5.03;;
77248;SDS011;66280;45.124;20.718;2024-02-23T13:45:48;6.37;;;4.63;;
77248;SDS011;66280;45.124;20.718;2024-02-23T13:55:53;11.20;;;5.70;;
77248;SDS011;66280;45.124;20.718;2024-02-23T14:05:54;11.98;;;5.45;;
77248;SDS011;66280;45.124;20.718;2024-02-23T14:16:14;10.03;;;5.60;;
77248;SDS011;66280;45.124;20.718;2024-02-23T14:26:15;9.67;;;6.03;;
77248;SDS011;66280;45.124;20.718;2024-02-23T14:36:17;11.47;;;7.00;;
77248;SDS011;66280;45.124;20.718;2024-02-23T14:46:20;11.50;;;6.87;;
77248;SDS011;66280;45.124;20.718;2024-02-23T14:56:22;19.20;;;9.60;;
77248;SDS011;66280;45.124;20.718;2024-02-23T15:06:24;17.07;;;10.93;;
77248;SDS011;66280;45.124;20.718;2024-02-23T15:16:29;13.93;;;7.53;;
77248;SDS011;66280;45.124;20.718;2024-02-23T15:26:33;14.83;;;8.70;;
77248;SDS011;66280;45.124;20.718;2024-02-23T15:36:34;14.40;;;7.90;;
77248;SDS011;66280;45.124;20.718;2024-02-23T15:46:36;30.60;;;16.30;;
77248;SDS011;66280;45.124;20.718;2024-02-23T15:56:37;25.87;;;13.07;;
77248;SDS011;66280;45.124;20.718;2024-02-23T16:06:40;16.87;;;9.03;;
77248;SDS011;66280;45.124;20.718;2024-02-23T16:16:41;15.40;;;8.77;;
77248;SDS011;66280;45.124;20.718;2024-02-23T16:26:43;22.37;;;12.97;;
77248;SDS011;66280;45.124;20.718;2024-02-23T16:36:44;27.15;;;14.40;;
77248;SDS011;66280;45.124;20.718;2024-02-23T16:46:46;23.00;;;9.33;;
77248;SDS011;66280;45.124;20.718;2024-02-23T16:56:53;35.83;;;19.07;;
77248;SDS011;66280;45.124;20.718;2024-02-23T17:06:55;13.70;;;7.83;;
77248;SDS011;66280;45.124;20.718;2024-02-23T17:16:58;32.67;;;15.57;;
77248;SDS011;66280;45.124;20.718;2024-02-23T17:27:00;15.73;;;9.50;;
77248;SDS011;66280;45.124;20.718;2024-02-23T17:37:02;17.77;;;10.03;;
77248;SDS011;66280;45.124;20.718;2024-02-23T17:47:04;15.00;;;7.90;;
77248;SDS011;66280;45.124;20.718;2024-02-23T17:57:06;25.60;;;13.93;;
77248;SDS011;66280;45.124;20.718;2024-02-23T18:07:08;20.30;;;10.23;;
77248;SDS011;66280;45.124;20.718;2024-02-23T18:17:09;31.02;;;15.55;;
77248;SDS011;66280;45.124;20.718;2024-02-23T18:27:11;36.27;;;18.03;;
77248;SDS011;66280;45.124;20.718;2024-02-23T18:37:12;17.10;;;8.70;;
77248;SDS011;66280;45.124;20.718;2024-02-23T18:47:14;14.90;;;6.07;;
77248;SDS011;66280;45.124;20.718;2024-02-23T18:57:15;11.27;;;6.33;;
77248;SDS011;66280;45.124;20.718;2024-02-23T19:07:19;10.60;;;5.72;;
77248;SDS011;66280;45.124;20.718;2024-02-23T19:17:21;11.13;;;5.33;;
77248;SDS011;66280;45.124;20.718;2024-02-23T19:27:22;12.37;;;6.43;;
77248;SDS011;66280;45.124;20.718;2024-02-23T19:37:24;8.33;;;4.30;;
77248;SDS011;66280;45.124;20.718;2024-02-23T19:47:25;6.23;;;3.73;;
77248;SDS011;66280;45.124;20.718;2024-02-23T19:57:26;9.02;;;4.55;;
77248;SDS011;66280;45.124;20.718;2024-02-23T20:07:28;7.23;;;4.13;;
77248;SDS011;66280;45.124;20.718;2024-02-23T20:17:30;9.63;;;4.53;;
77248;SDS011;66280;45.124;20.718;2024-02-23T20:27:31;11.30;;;4.60;;
77248;SDS011;66280;45.124;20.718;2024-02-23T20:37:33;8.33;;;4.03;;
77248;SDS011;66280;45.124;20.718;2024-02-23T20:47:35;7.35;;;3.20;;
77248;SDS011;66280;45.124;20.718;2024-02-23T20:57:36;4.90;;;3.20;;
77248;SDS011;66280;45.124;20.718;2024-02-23T21:07:37;9.00;;;3.10;;
77248;SDS011;66280;45.124;20.718;2024-02-23T21:17:39;9.37;;;3.77;;
77248;SDS011;66280;45.124;20.718;2024-02-23T21:27:40;6.50;;;3.70;;
77248;SDS011;66280;45.124;20.718;2024-02-23T21:37:42;5.10;;;3.20;;
77248;SDS011;66280;45.124;20.718;2024-02-23T21:47:43;4.53;;;2.93;;
77248;SDS011;66280;45.124;20.718;2024-02-23T21:57:45;5.97;;;3.77;;
77248;SDS011;66280;45.124;20.718;2024-02-23T22:07:46;6.97;;;3.17;;
77248;SDS011;66280;45.124;20.718;2024-02-23T22:17:48;7.07;;;2.77;;
77248;SDS011;66280;45.124;20.718;2024-02-23T22:27:49;6.00;;;3.05;;
77248;SDS011;66280;45.124;20.718;2024-02-23T22:37:51;10.67;;;3.23;;
77248;SDS011;66280;45.124;20.718;2024-02-23T22:47:52;7.70;;;3.27;;
77248;SDS011;66280;45.124;20.718;2024-02-23T22:57:53;4.80;;;2.87;;
77248;SDS011;66280;45.124;20.718;2024-02-23T23:07:55;7.20;;;3.07;;
77248;SDS011;66280;45.124;20.718;2024-02-23T23:17:56;6.00;;;2.95;;
77248;SDS011;66280;45.124;20.718;2024-02-23T23:27:58;8.23;;;3.33;;
77248;SDS011;66280;45.124;20.718;2024-02-23T23:37:59;4.40;;;2.27;;
77248;SDS011;66280;45.124;20.718;2024-02-23T23:48:00;6.47;;;3.23;;
77248;SDS011;66280;45.124;20.718;2024-02-23T23:58:02;7.70;;;3.87;;
